createdAt,value
2023-02-08T00:04:01.077Z,65.41
2023-02-08T00:07:57.677Z,65.39
2023-02-08T00:12:01.233Z,65.48
2023-02-08T00:15:56.325Z,65.71
2023-02-08T00:19:58.611Z,65.73
2023-02-08T00:23:40.280Z,65.78
2023-02-08T00:27:29.833Z,65.76
2023-02-08T00:31:27.631Z,65.78
2023-02-08T00:35:30.409Z,65.87
2023-02-08T00:39:34.469Z,66.33
2023-02-08T00:43:15.785Z,66.11
2023-02-08T00:47:19.806Z,65.96
2023-02-08T00:51:23.848Z,66.34
2023-02-08T00:55:16.065Z,66.27
2023-02-08T00:59:19.642Z,66.01
2023-02-08T01:03:23.192Z,65.93
2023-02-08T01:07:00.570Z,66.25
2023-02-08T01:10:54.202Z,66.48
2023-02-08T01:14:41.057Z,66.02
2023-02-08T01:18:37.740Z,66.59
2023-02-08T01:22:41.144Z,66.68
2023-02-08T01:26:06.604Z,66.66
2023-02-08T01:29:57.807Z,66.90
2023-02-08T01:34:01.421Z,66.84
2023-02-08T01:38:05.545Z,66.77
2023-02-08T01:42:13.958Z,66.64
2023-02-08T01:46:17.438Z,66.81
2023-02-08T01:50:13.705Z,66.59
2023-02-08T01:54:09.940Z,66.88
2023-02-08T01:58:00.150Z,66.60
2023-02-08T02:01:56.866Z,67.06
2023-02-08T02:05:53.213Z,67.03
2023-02-08T02:09:30.934Z,66.93
2023-02-08T02:13:14.815Z,66.96
2023-02-08T02:17:18.386Z,66.81
2023-02-08T02:21:31.500Z,67.12
2023-02-08T02:25:58.398Z,66.90
2023-02-08T02:30:03.262Z,67.03
2023-02-08T02:34:25.218Z,66.62
2023-02-08T02:38:30.520Z,66.93
2023-02-08T02:42:54.202Z,67.00
2023-02-08T02:47:11.795Z,67.15
2023-02-08T02:51:24.988Z,66.91
2023-02-08T02:55:28.366Z,67.14
2023-02-08T02:59:23.707Z,67.39
2023-02-08T03:03:11.441Z,67.42
2023-02-08T03:07:13.289Z,67.33
2023-02-08T03:11:12.680Z,67.08
2023-02-08T03:15:11.953Z,67.37
2023-02-08T03:19:24.370Z,66.84
2023-02-08T03:23:37.495Z,66.84
2023-02-08T03:27:47.344Z,66.87
2023-02-08T03:32:09.011Z,66.76
2023-02-08T03:36:18.739Z,66.51
2023-02-08T03:40:23.633Z,66.68
2023-02-08T03:44:28.773Z,66.80
2023-02-08T03:48:13.598Z,66.55
2023-02-08T03:52:17.517Z,66.63
2023-02-08T03:56:21.245Z,66.80
2023-02-08T04:00:21.676Z,66.62
2023-02-08T04:04:25.265Z,66.85
2023-02-08T04:08:29.348Z,66.78
2023-02-08T04:12:32.907Z,66.34
2023-02-08T04:16:36.974Z,66.33
2023-02-08T04:20:25.440Z,66.18
2023-02-08T04:24:21.966Z,66.37
2023-02-08T04:28:11.250Z,66.34
2023-02-08T04:32:07.430Z,66.26
2023-02-08T04:36:11.082Z,66.22
2023-02-08T04:40:07.259Z,66.52
2023-02-08T04:44:10.986Z,66.21
2023-02-08T04:48:15.014Z,66.40
2023-02-08T04:51:55.567Z,66.57
2023-02-08T04:55:59.430Z,66.61
2023-02-08T05:00:01.796Z,66.38
2023-02-08T05:04:03.940Z,66.75
2023-02-08T05:08:07.583Z,66.21
2023-02-08T05:12:11.154Z,66.26
2023-02-08T05:16:03.555Z,66.21
2023-02-08T05:20:00.588Z,66.35
2023-02-08T05:23:45.234Z,66.44
2023-02-08T05:27:50.352Z,66.24
2023-02-08T05:31:54.058Z,66.15
2023-02-08T05:35:58.090Z,66.44
2023-02-08T05:40:02.141Z,66.51
2023-02-08T05:44:06.200Z,66.67
2023-02-08T05:48:09.368Z,66.62
2023-02-08T05:52:05.655Z,66.65
2023-02-08T05:56:09.297Z,66.52
2023-02-08T06:00:12.968Z,66.51
2023-02-08T06:04:16.686Z,66.54
2023-02-08T06:08:20.491Z,66.30
2023-02-08T06:12:16.736Z,66.31
2023-02-08T06:16:20.151Z,66.03
2023-02-08T06:20:23.890Z,66.24
2023-02-08T06:24:28.421Z,66.25
2023-02-08T06:28:32.600Z,66.51
2023-02-08T06:32:26.152Z,66.41
2023-02-08T06:35:35.237Z,66.39
2023-02-08T06:38:59.806Z,66.29
2023-02-08T06:43:03.434Z,66.39
2023-02-08T06:46:08.837Z,66.54
2023-02-08T06:49:15.150Z,66.35
2023-02-08T06:52:19.204Z,65.96
2023-02-08T06:55:22.165Z,66.26
2023-02-08T06:58:27.822Z,66.26
2023-02-08T07:01:30.834Z,66.31
2023-02-08T07:04:54.592Z,66.35
2023-02-08T07:08:32.186Z,66.50
2023-02-08T07:11:35.304Z,66.39
2023-02-08T07:14:41.598Z,66.54
2023-02-08T07:18:08.105Z,66.11
2023-02-08T07:22:11.749Z,66.83
2023-02-08T07:26:16.339Z,66.51
2023-02-08T07:30:10.175Z,66.77
2023-02-08T07:34:13.741Z,66.84
2023-02-08T07:38:19.161Z,66.89
2023-02-08T07:42:24.607Z,67.05
2023-02-08T07:46:18.864Z,66.93
2023-02-08T07:49:37.254Z,66.69
2023-02-08T07:53:13.770Z,66.82
2023-02-08T07:57:08.209Z,66.86
2023-02-08T08:01:21.883Z,66.84
2023-02-08T08:04:45.757Z,67.06
2023-02-08T08:07:54.657Z,67.13
2023-02-08T08:11:42.206Z,67.09
2023-02-08T08:15:38.831Z,66.93
2023-02-08T08:19:42.361Z,66.46
2023-02-08T08:23:46.078Z,66.63
2023-02-08T08:27:49.806Z,66.18
2023-02-08T08:31:41.700Z,66.56
2023-02-08T08:35:45.432Z,65.90
2023-02-08T08:39:49.001Z,66.22
2023-02-08T08:43:52.613Z,66.14
2023-02-08T08:47:41.296Z,66.44
2023-02-08T08:51:37.798Z,66.20
2023-02-08T08:55:34.010Z,66.57
2023-02-08T08:59:36.410Z,66.59
2023-02-08T09:03:36.836Z,66.40
2023-02-08T09:07:39.783Z,66.27
2023-02-08T09:11:49.490Z,66.20
2023-02-08T09:15:53.641Z,65.94
2023-02-08T09:19:55.244Z,65.76
2023-02-08T09:23:59.299Z,65.66
2023-02-08T09:28:03.490Z,65.54
2023-02-08T09:32:10.513Z,65.74
2023-02-08T09:36:00.077Z,65.68
2023-02-08T09:40:05.608Z,65.49
2023-02-08T09:44:06.879Z,65.68
2023-02-08T09:47:33.000Z,65.54
2023-02-08T09:51:05.300Z,65.64
2023-02-08T09:54:26.433Z,65.68
2023-02-08T09:57:47.303Z,65.28
2023-02-08T10:01:15.965Z,65.02
2023-02-08T10:05:28.783Z,64.44
2023-02-08T10:09:16.169Z,63.76
2023-02-08T10:13:06.637Z,63.78
2023-02-08T10:16:59.258Z,64.12
2023-02-08T10:21:04.616Z,64.37
2023-02-08T10:24:40.412Z,63.90
2023-02-08T10:28:46.960Z,63.96
2023-02-08T10:32:30.414Z,63.81
2023-02-08T10:36:15.982Z,63.04
2023-02-08T10:39:52.474Z,62.63
2023-02-08T10:43:52.251Z,62.90
2023-02-08T10:47:55.025Z,62.11
2023-02-08T10:51:11.912Z,61.49
2023-02-08T10:54:18.674Z,62.25
2023-02-08T10:57:49.547Z,62.56
2023-02-08T11:01:11.595Z,61.80
2023-02-08T11:04:38.777Z,62.20
2023-02-08T11:08:15.604Z,62.25
2023-02-08T11:11:21.912Z,61.61
2023-02-08T11:14:46.736Z,60.56
2023-02-08T11:18:01.899Z,60.62
2023-02-08T11:22:08.588Z,61.10
2023-02-08T11:26:05.455Z,61.38
2023-02-08T11:29:52.132Z,61.52
2023-02-08T11:33:28.005Z,60.90
2023-02-08T11:37:11.479Z,60.58
2023-02-08T11:40:55.672Z,61.24
2023-02-08T11:44:44.323Z,61.30
2023-02-08T11:48:02.367Z,61.25
2023-02-08T11:51:53.277Z,60.92
2023-02-08T11:55:48.719Z,59.87
2023-02-08T11:59:05.117Z,59.89
2023-02-08T12:03:20.131Z,60.88
2023-02-08T12:07:09.633Z,60.56
2023-02-08T12:10:55.542Z,59.76
2023-02-08T12:15:09.925Z,60.16
2023-02-08T12:19:06.983Z,60.36
2023-02-08T12:22:52.468Z,60.18
2023-02-08T12:26:09.760Z,59.19
2023-02-08T12:29:54.886Z,59.92
2023-02-08T12:33:44.734Z,59.83
2023-02-08T12:37:56.261Z,59.46
2023-02-08T12:42:13.603Z,57.22
2023-02-08T12:46:29.141Z,57.53
2023-02-08T12:50:28.292Z,58.29
2023-02-08T12:54:01.166Z,56.26
2023-02-08T12:57:13.560Z,56.19
2023-02-08T13:00:56.891Z,56.32
2023-02-08T13:04:49.140Z,57.13
2023-02-08T13:08:42.819Z,57.20
2023-02-08T13:12:35.660Z,57.83
2023-02-08T13:16:29.617Z,56.90
2023-02-08T13:20:36.268Z,54.06
2023-02-08T13:24:30.639Z,56.70
2023-02-08T13:27:57.036Z,56.32
2023-02-08T13:31:47.078Z,54.11
2023-02-08T13:35:53.471Z,55.86
2023-02-08T13:39:54.067Z,56.03
2023-02-08T13:43:59.626Z,56.27
2023-02-08T13:47:35.391Z,53.48
2023-02-08T13:51:23.530Z,52.99
2023-02-08T13:55:27.197Z,54.53
2023-02-08T13:58:56.682Z,53.99
2023-02-08T14:02:31.767Z,54.91
2023-02-08T14:06:04.267Z,56.21
2023-02-08T14:10:09.905Z,56.06
2023-02-08T14:13:55.590Z,56.28
2023-02-08T14:17:09.193Z,55.09
2023-02-08T14:20:55.791Z,55.51
2023-02-08T14:24:34.757Z,55.81
2023-02-08T14:28:31.712Z,57.00
2023-02-08T14:32:07.795Z,56.66
2023-02-08T14:35:37.741Z,56.94
2023-02-08T14:39:34.596Z,57.17
2023-02-08T14:43:23.133Z,56.64
2023-02-08T14:47:12.726Z,57.30
2023-02-08T14:50:50.815Z,56.93
2023-02-08T14:54:35.531Z,57.34
2023-02-08T14:58:24.418Z,56.61
2023-02-08T15:02:01.912Z,57.11
2023-02-08T15:05:32.056Z,56.83
2023-02-08T15:08:46.566Z,57.08
2023-02-08T15:12:29.037Z,57.48
2023-02-08T15:15:51.752Z,57.68
2023-02-08T15:19:11.067Z,57.93
2023-02-08T15:22:48.620Z,57.57
2023-02-08T15:26:21.270Z,58.22
2023-02-08T15:29:48.999Z,58.38
2023-02-08T15:33:35.260Z,58.43
2023-02-08T15:36:48.676Z,58.06
2023-02-08T15:40:35.339Z,58.46
2023-02-08T15:44:04.413Z,58.55
2023-02-08T15:47:46.131Z,58.28
2023-02-08T15:51:24.817Z,58.53
2023-02-08T15:54:32.026Z,58.69
2023-02-08T15:58:38.187Z,58.77
2023-02-08T16:02:05.864Z,58.94
2023-02-08T16:05:32.734Z,58.98
2023-02-08T16:09:05.891Z,59.12
2023-02-08T16:12:25.194Z,58.53
2023-02-08T16:16:31.222Z,59.17
2023-02-08T16:20:33.716Z,59.05
2023-02-08T16:24:35.214Z,59.41
2023-02-08T16:28:38.847Z,59.16
2023-02-08T16:32:45.544Z,59.40
2023-02-08T16:36:48.519Z,59.58
2023-02-08T16:40:31.157Z,59.64
2023-02-08T16:44:10.829Z,59.97
2023-02-08T16:48:29.585Z,59.96
2023-02-08T16:52:38.996Z,60.08
2023-02-08T16:56:45.647Z,60.12
2023-02-08T17:00:39.215Z,60.19
2023-02-08T17:04:42.866Z,60.55
2023-02-08T17:08:46.993Z,60.56
2023-02-08T17:13:40.545Z,60.28
2023-02-08T17:17:17.630Z,60.70
2023-02-08T17:21:25.488Z,60.62
2023-02-08T17:25:18.965Z,61.00
2023-02-08T17:29:00.950Z,60.69
2023-02-08T17:37:56.237Z,61.09
2023-02-08T17:41:59.860Z,61.10
2023-02-08T17:46:03.948Z,61.04
2023-02-08T17:49:35.557Z,61.05
2023-02-08T17:53:39.336Z,61.14
2023-02-08T17:57:43.721Z,61.38
2023-02-08T18:01:48.306Z,61.51
2023-02-08T18:05:52.957Z,61.84
2023-02-08T18:09:57.581Z,61.99
2023-02-08T18:14:01.750Z,61.89
2023-02-08T18:17:57.814Z,61.96
2023-02-08T18:21:33.015Z,62.12
2023-02-08T18:25:22.973Z,62.35
2023-02-08T18:29:19.421Z,62.20
2023-02-08T18:33:23.653Z,62.73
2023-02-08T18:37:33.254Z,62.52
2023-02-08T18:41:37.014Z,62.77
2023-02-08T18:45:31.824Z,62.90
2023-02-08T18:49:35.521Z,63.04
2023-02-08T18:53:39.084Z,63.53
2023-02-08T18:57:42.690Z,63.27
2023-02-08T19:01:48.230Z,63.29
2023-02-08T19:05:52.091Z,63.61
2023-02-08T19:09:49.358Z,63.68
2023-02-08T19:13:53.037Z,63.60
2023-02-08T19:17:42.254Z,63.86
2023-02-08T19:21:33.410Z,64.00
2023-02-08T19:25:37.011Z,63.82
2023-02-08T19:29:34.649Z,64.15
2023-02-08T19:33:31.006Z,63.83
2023-02-08T19:37:34.585Z,64.86
2023-02-08T19:41:31.069Z,65.03
2023-02-08T19:45:33.511Z,64.61
2023-02-08T19:49:37.175Z,64.73
2023-02-08T19:53:06.398Z,64.67
2023-02-08T19:57:18.954Z,64.57
2023-02-08T20:01:15.560Z,64.99
2023-02-08T20:05:20.663Z,64.92
2023-02-08T20:09:24.430Z,65.03
2023-02-08T20:13:28.032Z,65.29
2023-02-08T20:17:32.111Z,65.19
2023-02-08T20:21:40.364Z,65.31
2023-02-08T20:25:44.212Z,65.53
2023-02-08T20:29:43.471Z,65.30
2023-02-08T20:33:47.420Z,65.45
2023-02-08T20:37:48.928Z,65.16
2023-02-08T20:41:46.342Z,65.49
2023-02-08T20:45:50.225Z,65.28
2023-02-08T20:49:46.522Z,65.05
2023-02-08T20:53:50.141Z,65.20
2023-02-08T20:57:53.982Z,65.38
2023-02-08T21:01:57.687Z,65.41
2023-02-08T21:05:42.586Z,65.49
2023-02-08T21:09:46.188Z,65.23
2023-02-08T21:13:50.275Z,65.39
2023-02-08T21:17:54.345Z,65.50
2023-02-08T21:21:58.061Z,65.78
2023-02-08T21:26:02.006Z,65.80
2023-02-08T21:30:06.069Z,65.86
2023-02-08T21:33:52.672Z,65.84
2023-02-08T21:37:56.391Z,66.62
2023-02-08T21:41:52.821Z,66.25
2023-02-08T21:45:46.635Z,66.30
2023-02-08T21:49:48.609Z,66.38
2023-02-08T21:53:51.264Z,66.36
2023-02-08T21:57:26.997Z,66.46
2023-02-08T22:01:30.655Z,66.65
2023-02-08T22:05:03.506Z,66.79
2023-02-08T22:08:35.039Z,66.64
2023-02-08T22:12:38.730Z,66.53
2023-02-08T22:16:41.255Z,66.38
2023-02-08T22:20:23.557Z,66.49
2023-02-08T22:24:20.209Z,66.73
2023-02-08T22:28:23.840Z,66.62
2023-02-08T22:32:27.600Z,66.63
2023-02-08T22:36:13.961Z,66.74
2023-02-08T22:40:10.630Z,66.52
2023-02-08T22:44:14.265Z,66.48
2023-02-08T22:48:18.231Z,66.79
2023-02-08T22:52:20.512Z,66.80
2023-02-08T22:56:30.058Z,67.08
2023-02-08T23:00:32.854Z,67.08
2023-02-08T23:04:36.429Z,67.27
2023-02-08T23:08:32.820Z,66.96
2023-02-08T23:12:29.546Z,67.18
2023-02-08T23:16:21.853Z,66.81
2023-02-08T23:19:55.031Z,67.00
2023-02-08T23:23:58.713Z,67.22
2023-02-08T23:28:02.382Z,67.31
2023-02-08T23:31:59.368Z,67.24
2023-02-08T23:35:58.991Z,67.50
2023-02-08T23:40:01.596Z,67.29
2023-02-08T23:44:08.516Z,67.63
2023-02-08T23:48:00.772Z,67.79
2023-02-08T23:52:04.773Z,67.61
2023-02-08T23:56:08.854Z,67.72
